sensor_id;sensor_type;location;lat;lon;timestamp;P1;P2;P0
45112;PMS5003;30873;53.908;27.576;2022-09-03T00:03:08;26.1;21.6;14.4
45112;PMS5003;30873;53.908;27.576;2022-09-03T00:08:24;23.9;21;14.2
45112;PMS5003;30873;53.908;27.576;2022-09-03T00:13:43;27.3;23.7;15.2
45112;PMS5003;30873;53.908;27.576;2022-09-03T00:18:05;27;22.9;15.8
45112;PMS5003;30873;53.908;27.576;2022-09-03T00:23:03;26.2;23.1;15.1
45112;PMS5003;30873;53.908;27.576;2022-09-03T00:28:04;24.8;22;14.6
45112;PMS5003;30873;53.908;27.576;2022-09-03T00:33:12;26.4;23.5;15
45112;PMS5003;30873;53.908;27.576;2022-09-03T00:38:10;25.9;23.2;15.5
45112;PMS5003;30873;53.908;27.576;2022-09-03T00:43:22;25.5;22.6;15.4
45112;PMS5003;30873;53.908;27.576;2022-09-03T00:48:17;28.4;24.6;16.3
45112;PMS5003;30873;53.908;27.576;2022-09-03T00:53:21;27.5;23;15.6
45112;PMS5003;30873;53.908;27.576;2022-09-03T01:03:03;25.6;22.4;15.5
45112;PMS5003;30873;53.908;27.576;2022-09-03T01:09:10;25.9;22.7;15.3
45112;PMS5003;30873;53.908;27.576;2022-09-03T01:13:06;27.4;22.8;15.3
45112;PMS5003;30873;53.908;27.576;2022-09-03T01:18:10;27;24.6;16.4
45112;PMS5003;30873;53.908;27.576;2022-09-03T01:28:41;27;23.6;15.3
45112;PMS5003;30873;53.908;27.576;2022-09-03T01:33:04;26.3;22.2;15.2
45112;PMS5003;30873;53.908;27.576;2022-09-03T01:38:11;24.9;21.3;14.6
45112;PMS5003;30873;53.908;27.576;2022-09-03T01:43:43;25.3;22.5;14.4
45112;PMS5003;30873;53.908;27.576;2022-09-03T01:48:13;22.4;20.3;14.1
45112;PMS5003;30873;53.908;27.576;2022-09-03T01:53:04;23.6;19.5;13.6
45112;PMS5003;30873;53.908;27.576;2022-09-03T01:58:17;22.1;19.6;13.6
45112;PMS5003;30873;53.908;27.576;2022-09-03T02:03:10;21.3;19.2;13
45112;PMS5003;30873;53.908;27.576;2022-09-03T02:08:22;22.6;19.3;13
45112;PMS5003;30873;53.908;27.576;2022-09-03T02:13:14;24.3;20.4;13.6
45112;PMS5003;30873;53.908;27.576;2022-09-03T02:18:14;22.8;19;13.5
45112;PMS5003;30873;53.908;27.576;2022-09-03T02:23:22;23.1;19.6;12.8
45112;PMS5003;30873;53.908;27.576;2022-09-03T02:28:22;24;20.1;13
45112;PMS5003;30873;53.908;27.576;2022-09-03T02:33:10;24.4;20.7;13.1
45112;PMS5003;30873;53.908;27.576;2022-09-03T02:38:33;23;19.7;13.1
45112;PMS5003;30873;53.908;27.576;2022-09-03T02:43:17;23;20.6;14.7
45112;PMS5003;30873;53.908;27.576;2022-09-03T02:48:02;25.2;22.6;15.3
45112;PMS5003;30873;53.908;27.576;2022-09-03T02:53:12;22.2;18.7;13.6
45112;PMS5003;30873;53.908;27.576;2022-09-03T02:58:02;22.8;19.9;13.4
45112;PMS5003;30873;53.908;27.576;2022-09-03T03:03:20;24.5;20.5;14.4
45112;PMS5003;30873;53.908;27.576;2022-09-03T03:08:02;23.7;21.4;13.9
45112;PMS5003;30873;53.908;27.576;2022-09-03T03:13:12;22.9;20;13.6
45112;PMS5003;30873;53.908;27.576;2022-09-03T03:18:02;23.9;21.6;14.9
45112;PMS5003;30873;53.908;27.576;2022-09-03T03:23:02;22.7;20.1;13.5
45112;PMS5003;30873;53.908;27.576;2022-09-03T03:28:12;25.3;20.8;13.7
45112;PMS5003;30873;53.908;27.576;2022-09-03T03:33:12;23.2;21.1;13.9
45112;PMS5003;30873;53.908;27.576;2022-09-03T03:38:02;24.3;20.3;13.7
45112;PMS5003;30873;53.908;27.576;2022-09-03T03:43:12;26.6;22.9;16.3
45112;PMS5003;30873;53.908;27.576;2022-09-03T03:48:16;23.8;21.5;14.8
45112;PMS5003;30873;53.908;27.576;2022-09-03T03:53:12;24.2;20.6;13.1
45112;PMS5003;30873;53.908;27.576;2022-09-03T03:58:02;21.3;19.6;13.9
45112;PMS5003;30873;53.908;27.576;2022-09-03T04:03:00;22;19.7;13.3
45112;PMS5003;30873;53.908;27.576;2022-09-03T04:08:02;21.4;19.5;13.1
45112;PMS5003;30873;53.908;27.576;2022-09-03T04:13:22;21.1;18.1;12.4
45112;PMS5003;30873;53.908;27.576;2022-09-03T04:18:02;21.6;18.3;12.8
45112;PMS5003;30873;53.908;27.576;2022-09-03T04:23:02;24.6;21;14.8
45112;PMS5003;30873;53.908;27.576;2022-09-03T04:28:26;23.5;21.3;14.9
45112;PMS5003;30873;53.908;27.576;2022-09-03T04:33:23;25.5;21.8;14.9
45112;PMS5003;30873;53.908;27.576;2022-09-03T04:38:24;27.6;23.5;15.5
45112;PMS5003;30873;53.908;27.576;2022-09-03T04:43:14;25;21.6;14.5
45112;PMS5003;30873;53.908;27.576;2022-09-03T04:48:14;23.8;20.9;14.3
45112;PMS5003;30873;53.908;27.576;2022-09-03T04:53:14;23.9;21.8;14.7
45112;PMS5003;30873;53.908;27.576;2022-09-03T04:58:03;22.5;19.6;13.3
45112;PMS5003;30873;53.908;27.576;2022-09-03T05:03:00;22.7;20.2;13
45112;PMS5003;30873;53.908;27.576;2022-09-03T05:08:02;24.3;20.9;14
45112;PMS5003;30873;53.908;27.576;2022-09-03T05:13:14;23.5;19.8;13.4
45112;PMS5003;30873;53.908;27.576;2022-09-03T05:18:02;22.5;20.5;13.7
45112;PMS5003;30873;53.908;27.576;2022-09-03T05:23:12;21;18.9;13.4
45112;PMS5003;30873;53.908;27.576;2022-09-03T05:28:12;21.3;18.2;12.8
45112;PMS5003;30873;53.908;27.576;2022-09-03T05:33:00;20.1;18;12.9
45112;PMS5003;30873;53.908;27.576;2022-09-03T05:38:14;20;18.2;12.4
45112;PMS5003;30873;53.908;27.576;2022-09-03T05:43:36;19;17;11.6
45112;PMS5003;30873;53.908;27.576;2022-09-03T05:48:22;18.8;16.5;10.9
45112;PMS5003;30873;53.908;27.576;2022-09-03T05:53:02;20.4;17.7;12.6
45112;PMS5003;30873;53.908;27.576;2022-09-03T05:58:12;20;16.8;12
45112;PMS5003;30873;53.908;27.576;2022-09-03T06:03:00;20.2;17.8;12.1
45112;PMS5003;30873;53.908;27.576;2022-09-03T06:08:26;20.1;17.8;11.9
45112;PMS5003;30873;53.908;27.576;2022-09-03T06:13:24;25.3;23;16.8
45112;PMS5003;30873;53.908;27.576;2022-09-03T06:18:02;27.4;26.1;19.8
45112;PMS5003;30873;53.908;27.576;2022-09-03T06:23:02;28.5;26.8;20.4
45112;PMS5003;30873;53.908;27.576;2022-09-03T06:28:12;36.5;33.4;25.9
45112;PMS5003;30873;53.908;27.576;2022-09-03T06:33:12;26.2;23.8;17.6
45112;PMS5003;30873;53.908;27.576;2022-09-03T06:38:23;23.3;20.3;14.6
45112;PMS5003;30873;53.908;27.576;2022-09-03T06:43:22;20.3;18.6;13.4
45112;PMS5003;30873;53.908;27.576;2022-09-03T06:48:12;25;21.8;15.6
45112;PMS5003;30873;53.908;27.576;2022-09-03T06:53:02;24.2;20.9;14.8
45112;PMS5003;30873;53.908;27.576;2022-09-03T06:58:28;24.8;21.7;15.3
45112;PMS5003;30873;53.908;27.576;2022-09-03T07:03:02;26.4;23.7;17
45112;PMS5003;30873;53.908;27.576;2022-09-03T07:08:12;25.9;23.5;16.1
45112;PMS5003;30873;53.908;27.576;2022-09-03T07:13:12;27.9;24.9;17.4
45112;PMS5003;30873;53.908;27.576;2022-09-03T07:18:02;24.4;22;15.4
45112;PMS5003;30873;53.908;27.576;2022-09-03T07:23:22;25.2;22.6;16
45112;PMS5003;30873;53.908;27.576;2022-09-03T07:28:04;22.9;20.5;14.3
45112;PMS5003;30873;53.908;27.576;2022-09-03T07:33:10;20.9;19.5;13.1
45112;PMS5003;30873;53.908;27.576;2022-09-03T07:38:22;20.1;17.6;12.5
45112;PMS5003;30873;53.908;27.576;2022-09-03T07:43:14;19.9;18;12.6
45112;PMS5003;30873;53.908;27.576;2022-09-03T07:48:14;15.9;14.7;10
45112;PMS5003;30873;53.908;27.576;2022-09-03T07:53:22;13.7;12.7;8
45112;PMS5003;30873;53.908;27.576;2022-09-03T07:58:22;14.3;11.7;7.8
45112;PMS5003;30873;53.908;27.576;2022-09-03T08:03:12;10.5;9.2;6.8
45112;PMS5003;30873;53.908;27.576;2022-09-03T08:08:03;9.7;8.6;6.2
45112;PMS5003;30873;53.908;27.576;2022-09-03T08:13:02;11.1;9;6.7
45112;PMS5003;30873;53.908;27.576;2022-09-03T08:18:12;11.4;10.3;7
45112;PMS5003;30873;53.908;27.576;2022-09-03T08:23:26;11.4;10.2;7.4
45112;PMS5003;30873;53.908;27.576;2022-09-03T08:28:02;11.8;10;7
45112;PMS5003;30873;53.908;27.576;2022-09-03T08:33:14;11.1;10.1;7.4
45112;PMS5003;30873;53.908;27.576;2022-09-03T08:38:14;11.7;10.6;7.3
45112;PMS5003;30873;53.908;27.576;2022-09-03T08:43:14;12.8;11.3;7.6
45112;PMS5003;30873;53.908;27.576;2022-09-03T08:48:36;11.7;10.9;7.4
45112;PMS5003;30873;53.908;27.576;2022-09-03T08:53:47;10.7;8.9;6.4
45112;PMS5003;30873;53.908;27.576;2022-09-03T08:58:13;11.6;10.2;6.6
45112;PMS5003;30873;53.908;27.576;2022-09-03T09:03:32;9.9;9.1;6.4
45112;PMS5003;30873;53.908;27.576;2022-09-03T09:08:07;12;9.7;6.6
45112;PMS5003;30873;53.908;27.576;2022-09-03T09:13:26;8.1;7.6;5.3
45112;PMS5003;30873;53.908;27.576;2022-09-03T09:18:04;7.7;7;4.5
45112;PMS5003;30873;53.908;27.576;2022-09-03T09:23:25;9;8.2;5.5
45112;PMS5003;30873;53.908;27.576;2022-09-03T09:28:31;8.3;7.9;5.5
45112;PMS5003;30873;53.908;27.576;2022-09-03T09:33:00;7.6;6.5;4.4
45112;PMS5003;30873;53.908;27.576;2022-09-03T09:38:02;7.1;6;4
45112;PMS5003;30873;53.908;27.576;2022-09-03T09:43:13;7.6;6.4;4.6
45112;PMS5003;30873;53.908;27.576;2022-09-03T09:48:05;7.7;7;4.8
45112;PMS5003;30873;53.908;27.576;2022-09-03T09:53:23;8.9;7.2;5
45112;PMS5003;30873;53.908;27.576;2022-09-03T09:58:04;6.1;5.4;3.4
45112;PMS5003;30873;53.908;27.576;2022-09-03T10:03:10;5.5;5.1;3.5
45112;PMS5003;30873;53.908;27.576;2022-09-03T10:08:04;4.6;4.3;2.8
45112;PMS5003;30873;53.908;27.576;2022-09-03T10:13:05;5.5;4.7;3
45112;PMS5003;30873;53.908;27.576;2022-09-03T10:18:26;3.4;3.2;2.1
45112;PMS5003;30873;53.908;27.576;2022-09-03T10:23:38;4.2;3.4;2.4
45112;PMS5003;30873;53.908;27.576;2022-09-03T10:28:02;4.4;4.2;2.2
45112;PMS5003;30873;53.908;27.576;2022-09-03T10:33:10;4.7;4.1;3
45112;PMS5003;30873;53.908;27.576;2022-09-03T10:38:32;5.9;5.2;3.4
45112;PMS5003;30873;53.908;27.576;2022-09-03T10:43:24;6.2;5.6;3.8
45112;PMS5003;30873;53.908;27.576;2022-09-03T10:48:34;5.7;5;3.4
45112;PMS5003;30873;53.908;27.576;2022-09-03T10:53:06;6.6;5.7;3.8
45112;PMS5003;30873;53.908;27.576;2022-09-03T10:59:24;5.1;4.2;3
45112;PMS5003;30873;53.908;27.576;2022-09-03T11:03:13;4.6;4.2;2.9
45112;PMS5003;30873;53.908;27.576;2022-09-03T11:08:29;4.8;4.5;3.3
45112;PMS5003;30873;53.908;27.576;2022-09-03T11:13:36;5.3;4.8;3.7
45112;PMS5003;30873;53.908;27.576;2022-09-03T11:18:14;5.8;5;3.4
45112;PMS5003;30873;53.908;27.576;2022-09-03T11:23:03;4.4;3.8;2.7
45112;PMS5003;30873;53.908;27.576;2022-09-03T11:28:50;5.7;5.5;3.8
45112;PMS5003;30873;53.908;27.576;2022-09-03T11:33:12;4.4;4;2.8
45112;PMS5003;30873;53.908;27.576;2022-09-03T11:38:28;4.2;3.5;2.2
45112;PMS5003;30873;53.908;27.576;2022-09-03T11:43:34;3.7;3.2;2.1
45112;PMS5003;30873;53.908;27.576;2022-09-03T11:48:15;2.7;2.2;1.5
45112;PMS5003;30873;53.908;27.576;2022-09-03T11:53:07;4;3.2;2.3
45112;PMS5003;30873;53.908;27.576;2022-09-03T11:58:17;4.2;3.2;2.3
45112;PMS5003;30873;53.908;27.576;2022-09-03T12:03:01;3;2.8;2.1
45112;PMS5003;30873;53.908;27.576;2022-09-03T12:13:26;2.1;1.6;1
45112;PMS5003;30873;53.908;27.576;2022-09-03T12:18:16;1.4;1.1;0.5
45112;PMS5003;30873;53.908;27.576;2022-09-03T12:23:25;1.9;1.9;1.1
45112;PMS5003;30873;53.908;27.576;2022-09-03T12:28:15;1.2;1.1;0.6
45112;PMS5003;30873;53.908;27.576;2022-09-03T12:33:15;1.2;0.9;0.5
45112;PMS5003;30873;53.908;27.576;2022-09-03T12:38:12;1.9;1.7;0.7
45112;PMS5003;30873;53.908;27.576;2022-09-03T12:43:17;2.8;2.6;2
45112;PMS5003;30873;53.908;27.576;2022-09-03T12:48:14;2;1.8;1.2
45112;PMS5003;30873;53.908;27.576;2022-09-03T12:53:02;1.6;1.4;1
45112;PMS5003;30873;53.908;27.576;2022-09-03T12:58:05;2;1.5;0.9
45112;PMS5003;30873;53.908;27.576;2022-09-03T13:03:03;2.2;2.1;1.3
45112;PMS5003;30873;53.908;27.576;2022-09-03T13:08:19;2.8;2.5;1.5
45112;PMS5003;30873;53.908;27.576;2022-09-03T13:13:06;2.5;2.1;1.6
45112;PMS5003;30873;53.908;27.576;2022-09-03T13:18:17;4.7;4.1;2.9
45112;PMS5003;30873;53.908;27.576;2022-09-03T13:24:27;3.9;3.3;2
45112;PMS5003;30873;53.908;27.576;2022-09-03T13:33:15;4;3.1;2.2
45112;PMS5003;30873;53.908;27.576;2022-09-03T13:38:25;3.7;3.4;2.1
45112;PMS5003;30873;53.908;27.576;2022-09-03T13:43:06;3.6;3.5;2.1
45112;PMS5003;30873;53.908;27.576;2022-09-03T13:48:06;4;3.9;2.8
45112;PMS5003;30873;53.908;27.576;2022-09-03T13:53:06;4;3.1;2
45112;PMS5003;30873;53.908;27.576;2022-09-03T13:58:28;4.6;3.9;2.6
45112;PMS5003;30873;53.908;27.576;2022-09-03T14:08:04;4.3;3.8;2.5
45112;PMS5003;30873;53.908;27.576;2022-09-03T14:13:28;5.3;4.4;3
45112;PMS5003;30873;53.908;27.576;2022-09-03T14:18:58;4;3.4;2.3
45112;PMS5003;30873;53.908;27.576;2022-09-03T14:24:20;5.5;4.6;3
45112;PMS5003;30873;53.908;27.576;2022-09-03T14:33:08;5.3;4.9;3.4
45112;PMS5003;30873;53.908;27.576;2022-09-03T14:38:29;5.5;5;3.3
45112;PMS5003;30873;53.908;27.576;2022-09-03T14:43:07;3.9;3.5;2.3
45112;PMS5003;30873;53.908;27.576;2022-09-03T14:48:58;4.7;4.2;2.7
45112;PMS5003;30873;53.908;27.576;2022-09-03T14:58:07;3.9;3.5;2.4
45112;PMS5003;30873;53.908;27.576;2022-09-03T15:04:18;5.1;4.9;3.9
45112;PMS5003;30873;53.908;27.576;2022-09-03T15:13:29;2.2;1.7;1
45112;PMS5003;30873;53.908;27.576;2022-09-03T15:18:58;1.8;1.8;0.8
45112;PMS5003;30873;53.908;27.576;2022-09-03T15:23:19;2.1;1.7;0.9
45112;PMS5003;30873;53.908;27.576;2022-09-03T15:28:16;2.2;2;1.3
45112;PMS5003;30873;53.908;27.576;2022-09-03T15:33:30;2.3;1.9;1.5
45112;PMS5003;30873;53.908;27.576;2022-09-03T15:38:19;2.2;2.1;1.1
45112;PMS5003;30873;53.908;27.576;2022-09-03T15:43:04;2.7;2.1;1.2
45112;PMS5003;30873;53.908;27.576;2022-09-03T15:48:46;13.1;12.4;9.1
45112;PMS5003;30873;53.908;27.576;2022-09-03T15:58:22;2.6;2.2;1.4
45112;PMS5003;30873;53.908;27.576;2022-09-03T16:03:57;3.5;3.1;2.5
45112;PMS5003;30873;53.908;27.576;2022-09-03T16:09:19;4.7;4.4;3.3
45112;PMS5003;30873;53.908;27.576;2022-09-03T16:13:04;6.5;5.1;3.8
45112;PMS5003;30873;53.908;27.576;2022-09-03T16:23:27;5.2;4.6;3.2
45112;PMS5003;30873;53.908;27.576;2022-09-03T16:28:16;6.8;5.7;3.8
45112;PMS5003;30873;53.908;27.576;2022-09-03T16:33:47;8.6;7.6;5.5
45112;PMS5003;30873;53.908;27.576;2022-09-03T16:38:13;12.2;11.5;8.9
45112;PMS5003;30873;53.908;27.576;2022-09-03T16:43:06;18.7;18;15.2
45112;PMS5003;30873;53.908;27.576;2022-09-03T16:53:14;13;11.2;7.5
45112;PMS5003;30873;53.908;27.576;2022-09-03T16:58:20;8.4;7.1;4.5
45112;PMS5003;30873;53.908;27.576;2022-09-03T17:03:22;8.5;7.1;4.6
45112;PMS5003;30873;53.908;27.576;2022-09-03T17:08:38;7.5;6.4;4
45112;PMS5003;30873;53.908;27.576;2022-09-03T17:18:16;16.6;14.3;9.6
45112;PMS5003;30873;53.908;27.576;2022-09-03T17:23:24;12.5;11.3;7.7
45112;PMS5003;30873;53.908;27.576;2022-09-03T17:28:07;6.7;6;3.8
45112;PMS5003;30873;53.908;27.576;2022-09-03T17:33:05;7.5;6;4
45112;PMS5003;30873;53.908;27.576;2022-09-03T17:38:22;6.3;5.6;3.9
45112;PMS5003;30873;53.908;27.576;2022-09-03T17:43:21;7.4;6.6;4.3
45112;PMS5003;30873;53.908;27.576;2022-09-03T17:48:21;7.4;6.4;4.4
45112;PMS5003;30873;53.908;27.576;2022-09-03T17:53:27;9.8;8.5;5.8
45112;PMS5003;30873;53.908;27.576;2022-09-03T17:58:37;8.8;7.5;5.1
45112;PMS5003;30873;53.908;27.576;2022-09-03T18:08:43;9.8;8.7;5.9
45112;PMS5003;30873;53.908;27.576;2022-09-03T18:13:30;9.1;8.6;5.9
45112;PMS5003;30873;53.908;27.576;2022-09-03T18:18:26;9;8.6;6.6
45112;PMS5003;30873;53.908;27.576;2022-09-03T18:23:18;10.3;9;6.3
45112;PMS5003;30873;53.908;27.576;2022-09-03T18:28:13;14.1;12.6;10.7
45112;PMS5003;30873;53.908;27.576;2022-09-03T18:33:10;16;14.4;12.3
45112;PMS5003;30873;53.908;27.576;2022-09-03T18:38:17;12;11.3;9
45112;PMS5003;30873;53.908;27.576;2022-09-03T18:43:13;12.9;11.6;9.8
45112;PMS5003;30873;53.908;27.576;2022-09-03T18:48:19;11.4;10.3;8.8
45112;PMS5003;30873;53.908;27.576;2022-09-03T19:03:05;6.6;5.7;3.3
45112;PMS5003;30873;53.908;27.576;2022-09-03T19:08:19;4.9;4.2;3.2
45112;PMS5003;30873;53.908;27.576;2022-09-03T19:13:32;4.5;3.6;2.6
45112;PMS5003;30873;53.908;27.576;2022-09-03T19:23:02;6;4.6;3.2
45112;PMS5003;30873;53.908;27.576;2022-09-03T19:28:29;7.4;6.8;4
45112;PMS5003;30873;53.908;27.576;2022-09-03T19:33:14;6.5;6;3.5
45112;PMS5003;30873;53.908;27.576;2022-09-03T19:43:28;7.9;6.6;3.9
45112;PMS5003;30873;53.908;27.576;2022-09-03T19:48:13;6;5.2;3.6
45112;PMS5003;30873;53.908;27.576;2022-09-03T19:53:16;6.1;5;3.3
45112;PMS5003;30873;53.908;27.576;2022-09-03T19:58:02;8;6.1;3.7
45112;PMS5003;30873;53.908;27.576;2022-09-03T20:03:10;7.5;6.2;3.7
45112;PMS5003;30873;53.908;27.576;2022-09-03T20:08:12;8.1;6.7;4.2
45112;PMS5003;30873;53.908;27.576;2022-09-03T20:13:05;7.7;7.3;4.3
45112;PMS5003;30873;53.908;27.576;2022-09-03T20:18:06;9;8.2;5.1
45112;PMS5003;30873;53.908;27.576;2022-09-03T20:23:05;8.8;7.1;4.6
45112;PMS5003;30873;53.908;27.576;2022-09-03T20:28:19;7.7;7;4.2
45112;PMS5003;30873;53.908;27.576;2022-09-03T20:33:05;9;8.1;4.9
45112;PMS5003;30873;53.908;27.576;2022-09-03T20:38:08;12.1;10.8;7.7
45112;PMS5003;30873;53.908;27.576;2022-09-03T20:43:19;9.1;8.2;4.8
45112;PMS5003;30873;53.908;27.576;2022-09-03T20:48:28;8.1;7.4;4.5
45112;PMS5003;30873;53.908;27.576;2022-09-03T20:53:06;8.2;7.6;4.9
45112;PMS5003;30873;53.908;27.576;2022-09-03T20:58:25;7.7;6.8;4.4
45112;PMS5003;30873;53.908;27.576;2022-09-03T21:03:06;12.3;11;7.1
45112;PMS5003;30873;53.908;27.576;2022-09-03T21:08:21;9.1;8.6;5.4
45112;PMS5003;30873;53.908;27.576;2022-09-03T21:13:30;9;7.7;4.6
45112;PMS5003;30873;53.908;27.576;2022-09-03T21:23:06;8.7;8.1;5.1
45112;PMS5003;30873;53.908;27.576;2022-09-03T21:28:25;9.1;8.2;5.1
45112;PMS5003;30873;53.908;27.576;2022-09-03T21:33:03;9.1;8.2;5.4
45112;PMS5003;30873;53.908;27.576;2022-09-03T21:38:16;10;9;6.3
45112;PMS5003;30873;53.908;27.576;2022-09-03T21:43:27;8.7;8.3;5.3
45112;PMS5003;30873;53.908;27.576;2022-09-03T21:48:36;8.7;7.9;4.8
45112;PMS5003;30873;53.908;27.576;2022-09-03T21:53:25;6.4;5.5;4
45112;PMS5003;30873;53.908;27.576;2022-09-03T22:03:00;6.5;6;3.6
45112;PMS5003;30873;53.908;27.576;2022-09-03T22:08:29;7.3;6.5;3.7
45112;PMS5003;30873;53.908;27.576;2022-09-03T22:13:27;8.5;7.6;4.2
45112;PMS5003;30873;53.908;27.576;2022-09-03T22:18:16;7.1;6.6;4.2
45112;PMS5003;30873;53.908;27.576;2022-09-03T22:23:16;7.8;6.4;3.6
45112;PMS5003;30873;53.908;27.576;2022-09-03T22:28:08;7.5;5.9;4
45112;PMS5003;30873;53.908;27.576;2022-09-03T22:33:29;7.3;6.4;4
45112;PMS5003;30873;53.908;27.576;2022-09-03T22:38:27;8.4;7.1;4.5
45112;PMS5003;30873;53.908;27.576;2022-09-03T22:43:31;9.4;8.3;5.6
45112;PMS5003;30873;53.908;27.576;2022-09-03T22:48:11;9.7;8.7;5.5
45112;PMS5003;30873;53.908;27.576;2022-09-03T22:53:07;11.1;9.3;6.4
45112;PMS5003;30873;53.908;27.576;2022-09-03T22:58:16;9.1;7.6;5.1
45112;PMS5003;30873;53.908;27.576;2022-09-03T23:03:02;8.7;7.6;5.1
45112;PMS5003;30873;53.908;27.576;2022-09-03T23:08:10;8.1;7.5;4.9
45112;PMS5003;30873;53.908;27.576;2022-09-03T23:13:07;9.3;8.3;5.1
45112;PMS5003;30873;53.908;27.576;2022-09-03T23:18:11;9.3;8.4;5.2
45112;PMS5003;30873;53.908;27.576;2022-09-03T23:23:07;9.3;8.1;5.4
45112;PMS5003;30873;53.908;27.576;2022-09-03T23:28:13;9.2;7.9;5.4
45112;PMS5003;30873;53.908;27.576;2022-09-03T23:33:35;11.1;9.4;5.9
45112;PMS5003;30873;53.908;27.576;2022-09-03T23:38:20;10.5;8.5;5.3
45112;PMS5003;30873;53.908;27.576;2022-09-03T23:43:25;9;8.2;5.3
45112;PMS5003;30873;53.908;27.576;2022-09-03T23:48:35;9.7;8.8;5.4
45112;PMS5003;30873;53.908;27.576;2022-09-03T23:53:49;10.6;9.3;6.3
45112;PMS5003;30873;53.908;27.576;2022-09-03T23:58:21;10.3;9.3;5.8
